• Join FlightAware (Why Join?)
  • Login
  • US Flag 
12:49PM EDT


 

Airport Tracker/Info


-or-


 

Live Flight TrackerFlight Track Log ✈ SKW6345 ✈ 23-Jun-2013 ✈ KBZN - KSFO

Flight Track Log - Related Links

Times and Time Zones

All times are in EDT time to prevent confusion due to time zone crossing. See the SKW6345 flight status page for this flight to view local times or setup timezone preferences in your user account.

Time Position Orientation Groundspeed Altitude Reporting Facility
EDT Latitude Longitude Course Direction KTS MPH feet Rate Location/Type
04:44PM 45.7561 -111.1239 229° Southwest 193 222 5,300  Level Salt Lake Center
04:45PM 45.7111 -111.1642 212° Southwest 239 275 6,900 1,980 Climbing Salt Lake Center
04:46PM 45.3720 -111.8278 230° Southwest  Level Estimated
04:46PM 45.7036 -111.2606 264° West 246 283 9,400  Level Salt Lake Center
04:47PM 45.3040 -111.9395 229° Southwest  Level Estimated
04:47PM 45.7158 -111.3644 280° West 255 293 11,300  Level Salt Lake Center
04:48PM 45.2309 -112.0592 229° Southwest  Level Estimated
04:48PM 45.7281 -111.4758 279° West 268 308 13,300  Level Salt Lake Center
04:49PM 45.1576 -112.1786 229° Southwest  Level Estimated
04:49PM 45.7403 -111.5900 279° West 283 326 15,300  Level Salt Lake Center
04:50PM 45.7594 -111.7114 283° West 308 354 16,500 1,200 Climbing Salt Lake Center
04:51PM 45.7872 -111.8353 288° West 324 373 17,800 1,560 Climbing Salt Lake Center
04:52PM 45.8219 -111.9883 288° West 334 384 19,700 1,380 Climbing Salt Lake Center
04:53PM 45.8492 -112.1161 287° West 335 386 20,700 900 Climbing Salt Lake Center
04:54PM 45.8225 -112.2444 253° West 345 397 21,600 960 Climbing Salt Lake Center
04:55PM 45.7628 -112.3581 233° Southwest 357 411 22,700 1,080 Climbing Salt Lake Center
04:56PM 45.7033 -112.4717 233° Southwest 357 411 23,900 960 Climbing Salt Lake Center
04:57PM 45.6447 -112.5844 233° Southwest 356 410 24,700 780 Climbing Salt Lake Center
04:58PM 45.5836 -112.6986 233° Southwest 361 415 25,600 780 Climbing Salt Lake Center
04:59PM 45.5100 -112.8389 233° Southwest 368 423 26,400 600 Climbing Salt Lake Center
05:00PM 45.4475 -112.9539 232° Southwest 368 423 26,900 480 Climbing Salt Lake Center
05:01PM 45.3850 -113.0725 233° Southwest 373 429 27,400 480 Climbing Salt Lake Center
05:02PM 45.3214 -113.1914 233° Southwest 376 433 27,900 480 Climbing Salt Lake Center
05:03PM 45.2503 -113.3233 233° Southwest 378 435 28,500 480 Climbing Salt Lake Center
05:04PM 45.1883 -113.4389 233° Southwest 383 441 29,000 540 Climbing Salt Lake Center
05:05PM 45.1153 -113.5714 232° Southwest 383 441 29,700 540 Climbing Salt Lake Center
05:07PM 45.0533 -113.6853 232° Southwest 383 441 30,200 480 Climbing Salt Lake Center
05:08PM 44.9797 -113.8183 232° Southwest 385 443 30,700 480 Climbing Salt Lake Center
05:09PM 44.9186 -113.9319 233° Southwest 382 440 31,200 480 Climbing Salt Lake Center
05:10PM 44.8508 -114.0547 232° Southwest 381 438 31,700 360 Climbing Salt Lake Center
05:11PM 44.7781 -114.1869 232° Southwest 382 440 32,000 120 Climbing Salt Lake Center
05:12PM 44.7133 -114.3014 232° Southwest 389 448 32,000  Level Salt Lake Center
05:13PM 44.6483 -114.4192 232° Southwest 396 456 32,000  Level Salt Lake Center
05:14PM 44.5689 -114.5583 231° Southwest 405 466 32,000  Level Salt Lake Center
05:15PM 44.5028 -114.6772 232° Southwest 404 465 32,000  Level Salt Lake Center
05:16PM 44.4233 -114.8178 232° Southwest 409 471 32,000  Level Salt Lake Center
05:17PM 44.3539 -114.9386 231° Southwest 414 476 32,000  Level Salt Lake Center
05:18PM 44.2725 -115.0792 231° Southwest 416 479 32,000  Level Salt Lake Center
05:19PM 44.1997 -115.2008 230° Southwest 424 488 32,000  Level Salt Lake Center
05:20PM 44.1303 -115.3219 231° Southwest 418 481 32,000  Level Salt Lake Center
05:21PM 44.0492 -115.4639 232° Southwest 419 482 32,000  Level Salt Lake Center
05:22PM 43.9781 -115.5844 231° Southwest 420 483 32,000  Level Salt Lake Center
05:23PM 43.8961 -115.7256 231° Southwest 418 481 32,000  Level Salt Lake Center
05:24PM 43.8247 -115.8472 231° Southwest 422 486 32,000  Level Salt Lake Center
05:25PM 43.7411 -115.9881 231° Southwest 422 486 32,000  Level Salt Lake Center
05:26PM 43.6703 -116.1078 231° Southwest 420 483 32,000  Level Salt Lake Center
05:27PM 43.5992 -116.2269 231° Southwest 419 482 32,000  Level Salt Lake Center
05:28PM 43.5156 -116.3669 231° Southwest 422 486 32,000  Level Salt Lake Center
05:29PM 43.4439 -116.4856 230° Southwest 420 483 32,000  Level Salt Lake Center
05:30PM 43.3600 -116.6247 230° Southwest 423 487 32,000  Level Salt Lake Center
05:31PM 43.2881 -116.7425 230° Southwest 421 484 32,000  Level Salt Lake Center
05:32PM 43.2039 -116.8811 230° Southwest 424 488 32,000  Level Salt Lake Center
05:33PM 43.1306 -116.9994 230° Southwest 424 488 32,000  Level Salt Lake Center
05:34PM 43.0453 -117.1403 230° Southwest 427 491 32,000  Level Salt Lake Center
05:35PM 42.9717 -117.2578 229° Southwest 427 491 32,000  Level Salt Lake Center
05:36PM 42.8853 -117.3961 230° Southwest 428 493 32,000  Level Salt Lake Center
05:37PM 42.8133 -117.5144 230° Southwest 424 488 32,000  Level Salt Lake Center
05:39PM 42.7406 -117.6314 230° Southwest 423 487 32,000  Level Salt Lake Center
05:40PM 42.6542 -117.7678 229° Southwest 425 489 32,000  Level Salt Lake Center
05:41PM 42.5753 -117.8761 225° Southwest 422 486 32,000  Level Salt Lake Center
05:42PM 42.4567 -117.9492 204° Southwest 420 483 32,000  Level Salt Lake Center
05:43PM 42.3547 -118.0117 204° Southwest 418 481 32,000  Level Salt Lake Center
05:44PM 42.2361 -118.0842 204° Southwest 419 482 32,000  Level Salt Lake Center
05:45PM 42.1292 -118.1511 205° Southwest 418 481 32,000  Level Salt Lake Center
05:46PM 42.0392 -118.2372 215° Southwest 415 478 32,000  Level Salt Lake Center
05:47PM 41.9467 -118.3644 226° Southwest 423 487 32,000  Level Salt Lake Center
05:48PM 41.8675 -118.4703 225° Southwest 423 487 32,000  Level Salt Lake Center
05:49PM 41.7747 -118.5944 225° Southwest 422 486 32,000  Level Salt Lake Center
05:50PM 41.6961 -118.7017 226° Southwest 422 486 32,000  Level Salt Lake Center
05:51PM 41.6050 -118.8250 225° Southwest 425 489 32,000  Level Oakland Center
05:52PM 41.5231 -118.9336 225° Southwest 425 489 32,000  Level Salt Lake Center
05:53PM 41.4292 -119.0564 224° Southwest 425 489 32,000  Level Salt Lake Center
05:54PM 41.3500 -119.1608 225° Southwest 423 487 32,000  Level Oakland Center
05:55PM 41.2725 -119.2642 225° Southwest 421 484 32,000  Level Oakland Center
05:56PM 41.1781 -119.3883 225° Southwest 427 491 32,000  Level Oakland Center
05:57PM 41.0992 -119.4908 224° Southwest 423 487 32,000  Level Oakland Center
05:58PM 41.0172 -119.5981 225° Southwest 425 489 32,000  Level Oakland Center
05:59PM 40.9233 -119.7206 225° Southwest 427 491 32,000  Level Oakland Center
06:00PM 40.8453 -119.8228 225° Southwest 425 489 32,000  Level Seattle Center
06:01PM 40.7619 -119.9258 223° Southwest 418 481 32,000  Level Oakland Center
06:02PM 40.6600 -120.0539 224° Southwest 420 483 32,000  Level Oakland Center
06:03PM 40.5767 -120.1664 226° Southwest 421 484 32,000  Level Seattle Center
06:04PM 40.4936 -120.2725 224° Southwest 416 479 32,000  Level Seattle Center
06:05PM 40.4092 -120.3756 223° Southwest 420 483 32,000  Level Oakland Center
06:06PM 40.3231 -120.4828 224° Southwest 428 493 32,000 -540 Level Oakland Center
06:07PM 40.2339 -120.5978 225° Southwest 444 511 30,900 -1,020 Descending Oakland Center
06:08PM 40.1436 -120.7119 224° Southwest 452 520 30,000 -480 Descending Seattle Center
06:09PM 40.0433 -120.8175 219° Southwest 460 529 30,000  Level Seattle Center
06:10PM 39.9300 -120.9369 219° Southwest 462 532 30,000  Level Oakland Center
06:11PM 39.8317 -121.0450 220° Southwest 464 534 30,000  Level Oakland Center
06:12PM 39.7225 -121.1594 219° Southwest 462 532 30,000  Level Oakland Center
06:13PM 39.6231 -121.2669 220° Southwest 462 532 30,000  Level Oakland Center
06:14PM 39.5231 -121.3731 219° Southwest 463 533 30,000  Level Oakland Center
06:15PM 39.4147 -121.4883 219° Southwest 463 533 30,000  Level Oakland Center
06:17PM 39.3144 -121.5928 219° Southwest 464 534 30,000  Level Oakland Center
06:18PM 39.2156 -121.6972 219° Southwest 463 533 30,000 -60 Level Oakland Center
06:19PM 39.1172 -121.8022 220° Southwest 462 532 29,900 -840 Descending Oakland Center
06:20PM 39.0158 -121.9075 219° Southwest 468 539 28,400 -2,100 Descending Oakland Center
06:21PM 38.9150 -122.0131 219° Southwest 471 542 25,600 -2,640 Descending Oakland Center
06:22PM 38.8014 -122.1314 219° Southwest 447 514 23,000 -2,280 Descending Oakland Center
06:23PM 38.7078 -122.2269 219° Southwest 434 499 21,000 -1,860 Descending Oakland Center
06:24PM 38.6267 -122.3131 220° Southwest 419 482 19,300 -1,800 Descending Oakland Center
06:25PM 38.5283 -122.3844 210° Southwest 418 481 17,400 -1,800 Descending Oakland Center
06:26PM 38.4286 -122.4317 200° South 384 442 15,700 -1,800 Descending Oakland Center
06:27PM 38.3075 -122.4881 200° South 387 445 13,800 -1,680 Descending Oakland Center
06:28PM 38.2086 -122.5336 200° South 378 435 12,300 -1,320 Descending Oakland Center
06:29PM 38.1150 -122.5761 200° South 360 414 11,100 -660 Descending Oakland Center
06:30PM 38.0281 -122.5989 192° South 322 371 11,000 -60 Descending Oakland Center
06:31PM 37.9319 -122.6086 185° South 329 379 11,000  Level Oakland Center
06:32PM 37.8550 -122.5517 150° Southeast 325 374 11,000  Level Oakland Center
06:33PM 37.7839 -122.4975 149° Southeast 311 358 11,000  Level Oakland Center
06:34PM 37.7111 -122.4433 150° Southeast 306 352 11,000  Level Oakland Center
06:35PM 37.6417 -122.3914 149° Southeast 300 345 11,000 -60 Level Oakland Center
06:36PM 37.5803 -122.3456 149° Southeast 276 318 10,900 -660 Descending Oakland Center
06:37PM 37.5194 -122.3006 150° Southeast 262 302 9,700 -1,140 Descending Oakland Center
06:38PM 37.4667 -122.2000 123° Southeast 241 277 8,300 -1,200 Descending Northern Cal TRACON
06:39PM 37.4333 -122.1333 122° Southeast 213 245 7,000 -1,200 Descending Northern Cal TRACON
06:40PM 37.4333 -122.0667 90° East 227 261 5,900 -1,200 Descending Northern Cal TRACON
06:41PM 37.4833 -122.0500 15° North 208 239 4,600 -900 Descending Northern Cal TRACON
06:42PM 37.5167 -122.1000 310° West 186 214 4,100 -660 Descending Northern Cal TRACON
06:43PM 37.5333 -122.1667 288° West 178 205 3,300 -840 Descending Northern Cal TRACON
06:44PM 37.5500 -122.2167 293° West 187 215 2,400 -840 Descending Northern Cal TRACON
06:45PM 37.5833 -122.2833 302° West 160 184 1,600 -720 Descending Northern Cal TRACON
06:46PM 37.6000 -122.3167 302° West 139 160 900 -660 Descending Northern Cal TRACON